• Join FlightAware (Why Join?)
  • Login
  • US Flag 
01:52AM EDT


 

Airport Tracker/Info


-or-


 

Live Flight TrackerFlight Track Log ✈ ASQ5958 ✈ 12-May-2013 ✈ KORD - KTYS

Flight Track Log - Related Links

Times and Time Zones

All times are in EDT time to prevent confusion due to time zone crossing. See the ASQ5958 flight status page for this flight to view local times or setup timezone preferences in your user account.

Time Position Orientation Groundspeed Altitude Reporting Facility
EDT Latitude Longitude Course Direction KTS MPH feet Rate Location/Type
06:33PM 41.9000 -87.9000 169° South 220 253 4,000  Level Chicago TRACON
06:34PM 41.8708 -87.8925 169° South 235 270 4,900 2,700 Climbing Chicago Center
06:34PM 41.8333 -87.8667 153° Southeast 273 314 6,700 2,280 Climbing Chicago TRACON
06:37PM 41.6531 -87.7353 151° Southeast 320 368 12,100 1,800 Climbing Chicago Center
06:38PM 41.5594 -87.6683 152° Southeast 374 430 13,200 1,440 Climbing Chicago Center
06:39PM 40.8488 -87.4288 169° South  Level FlightAware Approximate
06:39PM 41.4603 -87.5986 152° Southeast 393 452 15,100  Level Chicago Center
06:40PM 41.3531 -87.5611 165° South 404 465 17,000 1,800 Climbing Chicago Center
06:41PM 41.2178 -87.5372 172° South 407 468 18,900 1,740 Climbing Chicago Center
06:42PM 41.1028 -87.5069 169° South 419 482 20,600 1,560 Climbing Chicago Center
06:43PM 40.9875 -87.4761 169° South 423 487 22,200 1,440 Climbing Chicago Center
06:44PM 40.8708 -87.4436 168° South 429 494 23,700 1,440 Climbing Chicago Center
06:45PM 40.7508 -87.4139 169° South 437 503 25,200 1,440 Climbing Chicago Center
06:46PM 40.6317 -87.3828 169° South 437 503 26,700 1,500 Climbing Chicago Center
06:47PM 40.4872 -87.3447 169° South 441 507 28,300 1,260 Climbing Chicago Center
06:48PM 40.3917 -87.2631 147° Southeast 469 540 29,400 1,080 Climbing Chicago Center
06:49PM 40.3156 -87.1286 127° Southeast 463 533 30,600 720 Climbing Chicago Center
06:50PM 40.2194 -86.9608 127° Southeast 479 551 31,000 180 Climbing Chicago Center
06:51PM 40.1344 -86.8136 127° Southeast 502 578 31,000  Level Chicago Center
06:52PM 40.0628 -86.6911 127° Southeast 519 597 31,000  Level Indianapolis Center
06:53PM 39.9758 -86.5400 127° Southeast 522 601 31,000  Level Indianapolis Center
06:54PM 39.8886 -86.3878 127° Southeast 522 601 31,000  Level Indianapolis Center
06:55PM 39.7989 -86.2333 127° Southeast 521 600 31,000  Level Indianapolis Center
06:56PM 39.7092 -86.0786 127° Southeast 519 597 31,000  Level Indianapolis Center
06:57PM 39.6208 -85.9275 127° Southeast 522 601 31,000  Level Indianapolis Center
06:58PM 39.5147 -85.7478 127° Southeast 524 603 31,000  Level Indianapolis Center
06:59PM 39.4269 -85.5986 127° Southeast 522 601 31,000  Level Indianapolis Center
07:00PM 39.3356 -85.4553 129° Southeast 519 597 31,000  Level Indianapolis Center
07:01PM 39.2119 -85.3803 155° Southeast 491 565 31,000  Level Indianapolis Center
07:03PM 39.0833 -85.3250 162° South 486 559 31,000  Level Indianapolis Center
07:04PM 38.9550 -85.2714 162° South 486 559 31,000  Level Indianapolis Center
07:05PM 38.8025 -85.2056 161° South 485 558 31,000  Level Indianapolis Center
07:06PM 38.6750 -85.1517 162° South 482 555 31,000  Level Indianapolis Center
07:07PM 38.5394 -85.0964 162° South 479 551 31,000  Level Indianapolis Center
07:08PM 38.4114 -85.0425 162° South 483 556 31,000  Level Indianapolis Center
07:09PM 38.2842 -84.9878 161° South 483 556 31,000 -420 Level Indianapolis Center
07:10PM 38.1553 -84.9367 163° South 484 557 30,200 -900 Descending Indianapolis Center
07:11PM 38.0283 -84.8756 159° South 486 559 29,200 -1,080 Descending Indianapolis Center
07:12PM 37.8825 -84.7769 152° Southeast 506 582 28,000 -1,080 Descending Indianapolis Center
07:13PM 37.7561 -84.6975 154° Southeast 509 586 27,100 -540 Descending Indianapolis Center
07:14PM 37.6275 -84.6267 156° South 505 581 27,000 -540 Descending Indianapolis Center
07:15PM 37.4967 -84.5778 163° South 491 565 26,000 -1,380 Descending Indianapolis Center
07:16PM 37.3719 -84.5328 164° South 471 542 24,200 -1,320 Descending Indianapolis Center
07:18PM 37.1064 -84.4400 164° South 457 526 22,000 -720 Descending Indianapolis Center
07:19PM 36.9878 -84.3986 164° South 447 514 22,000 -300 Level Indianapolis Center
07:20PM 36.8681 -84.3569 164° South 446 513 21,500 -1,380 Descending Indianapolis Center
07:21PM 36.7492 -84.3161 165° South 444 511 19,200 -2,220 Descending Indianapolis Center
07:22PM 36.6342 -84.2747 164° South 435 501 17,000 -2,520 Descending Indianapolis Center
07:23PM 36.5050 -84.2303 165° South 416 479 14,100 -2,460 Descending Indianapolis Center
07:24PM 36.4111 -84.1983 165° South 395 455 12,000 -2,100 Descending Indianapolis Center
07:25PM 36.3522 -84.1806 166° South 393 452 11,000 -900 Descending Atlanta Center
07:26PM 36.2689 -84.1519 165° South 354 407 10,700 -1,140 Descending Atlanta Center
07:27PM 36.1897 -84.1261 165° South 315 362 8,800 -1,860 Descending Atlanta Center
07:28PM 36.1125 -84.1003 165° South 292 336 7,000 -1,560 Descending Atlanta Center
07:29PM 36.0436 -84.0772 165° South 277 319 5,700 -1,260 Descending Atlanta Center
07:30PM 35.9811 -84.0489 160° South 256 295 4,500 -900 Descending Atlanta Center
07:31PM 35.9353 -84.0081 144° Southeast 240 276 3,900 -900 Descending Atlanta Center
07:32PM 35.8831 -83.9542 140° Southeast 233 268 2,700 -1,080 Descending Atlanta Center
07:33PM 35.8433 -83.9492 174° South 208 239 1,800 -900 Descending Atlanta Center